Terminal Aerodrome Forecast
Issued by NWS

Home | Current Version | Previous Version | Text Only | Print | Product List | Glossary On
Versions: 1 2 3 4 5 6 7 8 9 10 11 12 13 14 15 16 17
000
FTUS43 KMQT 180520
TAFCMX
TAF
KCMX 180520Z 1806/1906 29015G22KT P6SM SCT090
     FM181100 24007KT P6SM BKN070
     FM181400 17004KT P6SM VCSH BKN070
     FM181700 13010KT 3SM -SN OVC030
     FM181800 12012KT 1/2SM SN OVC015
     FM190000 12007KT 1SM -SN OVC010
     FM190200 03007KT 1SM -SN OVC010
     FM190500 01009KT 2SM -SN OVC010=

USA.gov is the U.S. government's official web portal to all federal, state and local government web resources and services.